TFM - Tactical Decision Aid
ID: Runway Winds: CIG/VIS Threshold:

KMEM - Memphis Intl, TN, US

Updated at: 2036 UTC 17 Jun 2019
Latest TAF at: 1735 UTC 17 Jun 2019

TAF Board

Time2007Z 17/21Z 17/22Z 17/23Z 18/00Z 18/01Z 18/02Z 18/03Z 18/04Z 18/05Z 18/06Z 18/07Z 18/08Z 18/09Z>>
Type OBS PRVL PRVL PRVL PRVL PRVL PRVL PRVL PRVL PRVL PRVL PRVL PRVL PRVL
  [TEMP]  
VIS 10 >6 >6 >6 >6 >6 >6 >6 >6 >6 >6 >6 >6 >6
CIG 110 150 120 120 120 120 120 100 100 100 100 100 100 100
  [20]  
Cover OVC BKN BKN BKN BKN BKN BKN BKN BKN BKN BKN BKN BKN BKN
  [BKN]  
FltCat VFR VFR VFR VFR VFR VFR VFR VFR VFR VFR VFR VFR VFR VFR
  [MVFR]  
WX -RA VCSH VCTS VCTS VCTS VCTS VCTS -- -- -- -- -- -- --
  [--]  
WDir 210 210 180 180 180 180 180 180 180 180 180 180 180 180
[180]
WSpd 8 10 10 10 10 10 10 6 6 6 6 6 6 6
  [6]  
WGst -- 16 -- -- -- -- -- -- -- -- -- -- -- --
  [--]  

TDA Impact Legend

  None Marginal Slight Moderate High
Visibility (sm) >5 3≤X≤5 1≤X<3 0.5≤X<1 <0.5
Ceiling (100 ft) >30 10≤X≤30 4≤X<10 2≤X<4 <2
Wind Speed (kt) <15 15≤X<25 25≤X<30 ≥30
Wind Gust (kt) <15 15≤X<25 25≤X<35 ≥35
Weather No Wx Reported VCTS -TS,-FZRA TS,FZRA +TS,+FZRA
TAF
KMEM 171735Z 1718/1824 21010G16KT P6SM VCSH SCT050 BKN150
  FM172200 18010KT P6SM VCTS SCT040CB BKN120
  FM180300 18006KT P6SM SCT030 BKN100
  TEMPO 1809/1813 BKN020
  FM181800 19008KT P6SM VCSH SCT040 BKN120


METAR
KMEM 172007Z 21008KT 10SM -RA FEW055 SCT080 BKN110 OVC180 28/22 A2992 RMK AO2 RAB07 P0000 T02780222 $
KMEM 171954Z 21008KT 10SM FEW085 BKN120 BKN160 OVC250 28/22 A2993 RMK AO2 SLP131 T02780217 $
KMEM 171854Z 20009KT 10SM FEW110 BKN160 OVC250 28/21 A2995 RMK AO2 SLP136 T02780211 $
KMEM 171754Z 21011KT 10SM FEW095 BKN160 OVC250 27/21 A2997 RMK AO2 SLP143 T02720206 10289 20222 53003 $

Radar Display
Forecast Discussion